sensor_id;sensor_type;location;lat;lon;timestamp;temperature;humidity
4725;DHT22;2376;53.544;10.226;2023-04-15T00:02:14;9.90;99.90
4725;DHT22;2376;53.544;10.226;2023-04-15T00:04:42;9.80;99.90
4725;DHT22;2376;53.544;10.226;2023-04-15T00:07:10;10.10;99.90
4725;DHT22;2376;53.544;10.226;2023-04-15T00:09:37;10.10;99.90
4725;DHT22;2376;53.544;10.226;2023-04-15T00:12:04;10.00;99.90
4725;DHT22;2376;53.544;10.226;2023-04-15T00:14:33;10.10;99.90
4725;DHT22;2376;53.544;10.226;2023-04-15T00:17:00;10.20;99.90
4725;DHT22;2376;53.544;10.226;2023-04-15T00:19:28;10.50;99.90
4725;DHT22;2376;53.544;10.226;2023-04-15T00:21:55;10.60;99.90
4725;DHT22;2376;53.544;10.226;2023-04-15T00:24:23;10.50;99.90
4725;DHT22;2376;53.544;10.226;2023-04-15T00:26:50;10.50;99.90
4725;DHT22;2376;53.544;10.226;2023-04-15T00:29:17;10.40;99.90
4725;DHT22;2376;53.544;10.226;2023-04-15T00:31:44;10.40;99.90
4725;DHT22;2376;53.544;10.226;2023-04-15T00:34:11;10.50;99.90
4725;DHT22;2376;53.544;10.226;2023-04-15T00:36:38;10.10;99.90
4725;DHT22;2376;53.544;10.226;2023-04-15T00:39:05;10.10;99.90
4725;DHT22;2376;53.544;10.226;2023-04-15T00:41:34;10.30;99.90
4725;DHT22;2376;53.544;10.226;2023-04-15T00:44:03;10.10;99.90
4725;DHT22;2376;53.544;10.226;2023-04-15T00:46:32;10.00;99.90
4725;DHT22;2376;53.544;10.226;2023-04-15T00:49:02;9.90;99.90
4725;DHT22;2376;53.544;10.226;2023-04-15T00:51:29;9.80;99.90
4725;DHT22;2376;53.544;10.226;2023-04-15T00:53:58;10.00;99.90
4725;DHT22;2376;53.544;10.226;2023-04-15T00:56:25;10.10;99.90
4725;DHT22;2376;53.544;10.226;2023-04-15T00:58:55;10.20;99.90
4725;DHT22;2376;53.544;10.226;2023-04-15T01:01:24;10.10;99.90
4725;DHT22;2376;53.544;10.226;2023-04-15T01:03:51;10.10;99.90
4725;DHT22;2376;53.544;10.226;2023-04-15T01:06:18;10.20;99.90
4725;DHT22;2376;53.544;10.226;2023-04-15T01:08:45;10.20;99.90
4725;DHT22;2376;53.544;10.226;2023-04-15T01:11:12;10.30;99.90
4725;DHT22;2376;53.544;10.226;2023-04-15T01:13:39;10.30;99.90
4725;DHT22;2376;53.544;10.226;2023-04-15T01:16:07;10.10;99.90
4725;DHT22;2376;53.544;10.226;2023-04-15T01:18:35;10.20;99.90
4725;DHT22;2376;53.544;10.226;2023-04-15T01:21:04;10.20;99.90
4725;DHT22;2376;53.544;10.226;2023-04-15T01:23:32;10.10;99.90
4725;DHT22;2376;53.544;10.226;2023-04-15T01:26:00;10.30;99.90
4725;DHT22;2376;53.544;10.226;2023-04-15T01:28:28;10.40;99.90
4725;DHT22;2376;53.544;10.226;2023-04-15T01:31:07;10.20;99.90
4725;DHT22;2376;53.544;10.226;2023-04-15T01:33:35;10.10;99.90
4725;DHT22;2376;53.544;10.226;2023-04-15T01:36:03;10.20;99.90
4725;DHT22;2376;53.544;10.226;2023-04-15T01:38:30;10.30;99.90
4725;DHT22;2376;53.544;10.226;2023-04-15T01:40:57;10.40;99.90
4725;DHT22;2376;53.544;10.226;2023-04-15T01:43:26;10.20;99.90
4725;DHT22;2376;53.544;10.226;2023-04-15T01:45:53;10.30;99.90
4725;DHT22;2376;53.544;10.226;2023-04-15T01:48:21;10.30;99.90
4725;DHT22;2376;53.544;10.226;2023-04-15T01:50:48;10.30;99.90
4725;DHT22;2376;53.544;10.226;2023-04-15T01:53:16;10.40;99.90
4725;DHT22;2376;53.544;10.226;2023-04-15T01:55:43;10.50;99.90
4725;DHT22;2376;53.544;10.226;2023-04-15T01:58:10;10.50;99.90
4725;DHT22;2376;53.544;10.226;2023-04-15T02:00:38;10.40;99.90
4725;DHT22;2376;53.544;10.226;2023-04-15T02:03:06;10.40;99.90
4725;DHT22;2376;53.544;10.226;2023-04-15T02:05:33;10.30;99.90
4725;DHT22;2376;53.544;10.226;2023-04-15T02:08:00;10.10;99.90
4725;DHT22;2376;53.544;10.226;2023-04-15T02:10:27;10.00;99.90
4725;DHT22;2376;53.544;10.226;2023-04-15T02:12:53;9.90;99.90
4725;DHT22;2376;53.544;10.226;2023-04-15T02:15:20;9.70;99.90
4725;DHT22;2376;53.544;10.226;2023-04-15T02:17:49;9.50;99.90
4725;DHT22;2376;53.544;10.226;2023-04-15T02:20:18;9.60;99.90
4725;DHT22;2376;53.544;10.226;2023-04-15T02:22:45;9.60;99.90
4725;DHT22;2376;53.544;10.226;2023-04-15T02:25:13;10.00;99.90
4725;DHT22;2376;53.544;10.226;2023-04-15T02:27:41;10.00;99.90
4725;DHT22;2376;53.544;10.226;2023-04-15T02:30:08;10.10;99.90
4725;DHT22;2376;53.544;10.226;2023-04-15T02:32:35;9.90;99.90
4725;DHT22;2376;53.544;10.226;2023-04-15T02:35:05;10.10;99.90
4725;DHT22;2376;53.544;10.226;2023-04-15T02:37:35;10.10;99.90
4725;DHT22;2376;53.544;10.226;2023-04-15T02:40:07;10.10;99.90
4725;DHT22;2376;53.544;10.226;2023-04-15T02:42:34;10.20;99.90
4725;DHT22;2376;53.544;10.226;2023-04-15T02:45:00;10.20;99.90
4725;DHT22;2376;53.544;10.226;2023-04-15T02:47:27;10.00;99.90
4725;DHT22;2376;53.544;10.226;2023-04-15T02:49:54;9.80;99.90
4725;DHT22;2376;53.544;10.226;2023-04-15T02:52:24;9.70;99.90
4725;DHT22;2376;53.544;10.226;2023-04-15T02:54:51;9.90;99.90
4725;DHT22;2376;53.544;10.226;2023-04-15T02:57:22;9.90;99.90
4725;DHT22;2376;53.544;10.226;2023-04-15T02:59:48;10.00;99.90
4725;DHT22;2376;53.544;10.226;2023-04-15T03:02:15;10.10;99.90
4725;DHT22;2376;53.544;10.226;2023-04-15T03:04:42;10.00;99.90
4725;DHT22;2376;53.544;10.226;2023-04-15T03:07:09;9.80;99.90
4725;DHT22;2376;53.544;10.226;2023-04-15T03:09:37;9.90;99.90
4725;DHT22;2376;53.544;10.226;2023-04-15T03:12:05;9.60;99.90
4725;DHT22;2376;53.544;10.226;2023-04-15T03:14:32;9.50;99.90
4725;DHT22;2376;53.544;10.226;2023-04-15T03:16:59;9.50;99.90
4725;DHT22;2376;53.544;10.226;2023-04-15T03:19:26;9.70;99.90
4725;DHT22;2376;53.544;10.226;2023-04-15T03:21:53;9.90;99.90
4725;DHT22;2376;53.544;10.226;2023-04-15T03:24:20;10.10;99.90
4725;DHT22;2376;53.544;10.226;2023-04-15T03:26:48;10.40;99.90
4725;DHT22;2376;53.544;10.226;2023-04-15T03:29:15;10.30;99.90
4725;DHT22;2376;53.544;10.226;2023-04-15T03:31:41;10.30;99.90
4725;DHT22;2376;53.544;10.226;2023-04-15T03:34:08;10.30;99.90
4725;DHT22;2376;53.544;10.226;2023-04-15T03:36:35;10.40;99.90
4725;DHT22;2376;53.544;10.226;2023-04-15T03:39:02;10.10;99.90
4725;DHT22;2376;53.544;10.226;2023-04-15T03:41:29;10.30;99.90
4725;DHT22;2376;53.544;10.226;2023-04-15T03:43:58;10.40;99.90
4725;DHT22;2376;53.544;10.226;2023-04-15T03:46:25;10.50;99.90
4725;DHT22;2376;53.544;10.226;2023-04-15T03:48:52;10.30;99.90
4725;DHT22;2376;53.544;10.226;2023-04-15T03:51:19;10.30;99.90
4725;DHT22;2376;53.544;10.226;2023-04-15T03:53:46;10.20;99.90
4725;DHT22;2376;53.544;10.226;2023-04-15T03:56:12;10.30;99.90
4725;DHT22;2376;53.544;10.226;2023-04-15T03:58:39;10.20;99.90
4725;DHT22;2376;53.544;10.226;2023-04-15T04:01:07;10.20;99.90
4725;DHT22;2376;53.544;10.226;2023-04-15T04:03:34;10.00;99.90
4725;DHT22;2376;53.544;10.226;2023-04-15T04:06:01;10.00;99.90
4725;DHT22;2376;53.544;10.226;2023-04-15T04:08:28;10.20;99.90
4725;DHT22;2376;53.544;10.226;2023-04-15T04:10:55;10.20;99.90
4725;DHT22;2376;53.544;10.226;2023-04-15T04:13:22;10.20;99.90
4725;DHT22;2376;53.544;10.226;2023-04-15T04:15:49;10.30;99.90
4725;DHT22;2376;53.544;10.226;2023-04-15T04:18:17;10.50;99.90
4725;DHT22;2376;53.544;10.226;2023-04-15T04:20:44;10.40;99.90
4725;DHT22;2376;53.544;10.226;2023-04-15T04:23:11;10.40;99.90
4725;DHT22;2376;53.544;10.226;2023-04-15T04:25:37;10.40;99.90
4725;DHT22;2376;53.544;10.226;2023-04-15T04:28:04;10.30;99.90
4725;DHT22;2376;53.544;10.226;2023-04-15T04:30:31;10.40;99.90
4725;DHT22;2376;53.544;10.226;2023-04-15T04:32:58;10.30;99.90
4725;DHT22;2376;53.544;10.226;2023-04-15T04:35:27;10.20;99.90
4725;DHT22;2376;53.544;10.226;2023-04-15T04:37:53;10.20;99.90
4725;DHT22;2376;53.544;10.226;2023-04-15T04:40:21;10.10;99.90
4725;DHT22;2376;53.544;10.226;2023-04-15T04:42:47;10.20;99.90
4725;DHT22;2376;53.544;10.226;2023-04-15T04:45:14;10.30;99.90
4725;DHT22;2376;53.544;10.226;2023-04-15T04:47:41;10.40;99.90
4725;DHT22;2376;53.544;10.226;2023-04-15T04:50:08;10.20;99.90
4725;DHT22;2376;53.544;10.226;2023-04-15T04:52:37;10.00;99.90
4725;DHT22;2376;53.544;10.226;2023-04-15T04:55:05;10.10;99.90
4725;DHT22;2376;53.544;10.226;2023-04-15T04:57:33;10.20;99.90
4725;DHT22;2376;53.544;10.226;2023-04-15T05:00:00;10.30;99.90
4725;DHT22;2376;53.544;10.226;2023-04-15T05:02:27;10.30;99.90
4725;DHT22;2376;53.544;10.226;2023-04-15T05:04:54;10.20;99.90
4725;DHT22;2376;53.544;10.226;2023-04-15T05:07:21;10.20;99.90
4725;DHT22;2376;53.544;10.226;2023-04-15T05:09:49;10.10;99.90
4725;DHT22;2376;53.544;10.226;2023-04-15T05:12:16;9.90;99.90
4725;DHT22;2376;53.544;10.226;2023-04-15T05:14:43;10.00;99.90
4725;DHT22;2376;53.544;10.226;2023-04-15T05:17:11;10.10;99.90
4725;DHT22;2376;53.544;10.226;2023-04-15T05:19:38;9.90;99.90
4725;DHT22;2376;53.544;10.226;2023-04-15T05:22:05;9.80;99.90
4725;DHT22;2376;53.544;10.226;2023-04-15T05:24:32;9.70;99.90
4725;DHT22;2376;53.544;10.226;2023-04-15T05:27:00;9.90;99.90
4725;DHT22;2376;53.544;10.226;2023-04-15T05:29:27;9.90;99.90
4725;DHT22;2376;53.544;10.226;2023-04-15T05:31:54;9.80;99.90
4725;DHT22;2376;53.544;10.226;2023-04-15T05:34:21;9.70;99.90
4725;DHT22;2376;53.544;10.226;2023-04-15T05:36:48;9.60;99.90
4725;DHT22;2376;53.544;10.226;2023-04-15T05:39:15;9.60;99.90
4725;DHT22;2376;53.544;10.226;2023-04-15T05:41:41;9.40;99.90
4725;DHT22;2376;53.544;10.226;2023-04-15T05:44:10;9.40;99.90
4725;DHT22;2376;53.544;10.226;2023-04-15T05:46:36;9.40;99.90
4725;DHT22;2376;53.544;10.226;2023-04-15T05:49:03;9.30;99.90
4725;DHT22;2376;53.544;10.226;2023-04-15T05:51:30;9.40;99.90
4725;DHT22;2376;53.544;10.226;2023-04-15T05:53:57;9.30;99.90
4725;DHT22;2376;53.544;10.226;2023-04-15T05:56:24;9.30;99.90
4725;DHT22;2376;53.544;10.226;2023-04-15T05:58:52;9.50;99.90
4725;DHT22;2376;53.544;10.226;2023-04-15T06:01:20;9.70;99.90
4725;DHT22;2376;53.544;10.226;2023-04-15T06:03:47;9.50;99.90
4725;DHT22;2376;53.544;10.226;2023-04-15T06:06:14;9.60;99.90
4725;DHT22;2376;53.544;10.226;2023-04-15T06:08:41;9.60;99.90
4725;DHT22;2376;53.544;10.226;2023-04-15T06:11:08;9.60;99.90
4725;DHT22;2376;53.544;10.226;2023-04-15T06:13:35;9.60;99.90
4725;DHT22;2376;53.544;10.226;2023-04-15T06:16:02;9.30;99.90
4725;DHT22;2376;53.544;10.226;2023-04-15T06:18:31;9.40;99.90
4725;DHT22;2376;53.544;10.226;2023-04-15T06:20:57;9.50;99.90
4725;DHT22;2376;53.544;10.226;2023-04-15T06:23:24;9.50;99.90
4725;DHT22;2376;53.544;10.226;2023-04-15T06:25:51;9.70;99.90
4725;DHT22;2376;53.544;10.226;2023-04-15T06:28:18;9.80;99.90
4725;DHT22;2376;53.544;10.226;2023-04-15T06:30:45;9.80;99.90
4725;DHT22;2376;53.544;10.226;2023-04-15T06:33:12;10.00;99.90
4725;DHT22;2376;53.544;10.226;2023-04-15T06:35:40;9.80;99.90
4725;DHT22;2376;53.544;10.226;2023-04-15T06:38:07;9.60;99.90
4725;DHT22;2376;53.544;10.226;2023-04-15T06:40:34;9.80;99.90
4725;DHT22;2376;53.544;10.226;2023-04-15T06:43:01;9.60;99.90
4725;DHT22;2376;53.544;10.226;2023-04-15T06:45:29;9.60;99.90
4725;DHT22;2376;53.544;10.226;2023-04-15T06:47:56;9.50;99.90
4725;DHT22;2376;53.544;10.226;2023-04-15T06:50:23;9.70;99.90
4725;DHT22;2376;53.544;10.226;2023-04-15T06:52:53;9.50;99.90
4725;DHT22;2376;53.544;10.226;2023-04-15T06:55:20;9.80;99.90
4725;DHT22;2376;53.544;10.226;2023-04-15T06:57:47;9.80;99.90
4725;DHT22;2376;53.544;10.226;2023-04-15T07:00:14;9.80;99.90
4725;DHT22;2376;53.544;10.226;2023-04-15T07:02:41;10.00;99.90
4725;DHT22;2376;53.544;10.226;2023-04-15T07:05:08;10.10;99.90
4725;DHT22;2376;53.544;10.226;2023-04-15T07:07:34;10.00;99.90
4725;DHT22;2376;53.544;10.226;2023-04-15T07:10:03;10.00;99.90
4725;DHT22;2376;53.544;10.226;2023-04-15T07:12:31;10.00;99.90
4725;DHT22;2376;53.544;10.226;2023-04-15T07:14:57;9.90;99.90
4725;DHT22;2376;53.544;10.226;2023-04-15T07:17:24;9.60;99.90
4725;DHT22;2376;53.544;10.226;2023-04-15T07:19:51;9.50;99.90
4725;DHT22;2376;53.544;10.226;2023-04-15T07:22:18;9.50;99.90
4725;DHT22;2376;53.544;10.226;2023-04-15T07:24:45;9.90;99.90
4725;DHT22;2376;53.544;10.226;2023-04-15T07:27:13;9.80;99.90
4725;DHT22;2376;53.544;10.226;2023-04-15T07:29:40;9.90;99.90
4725;DHT22;2376;53.544;10.226;2023-04-15T07:32:07;10.10;99.90
4725;DHT22;2376;53.544;10.226;2023-04-15T07:34:35;10.10;99.90
4725;DHT22;2376;53.544;10.226;2023-04-15T07:37:02;10.20;99.90
4725;DHT22;2376;53.544;10.226;2023-04-15T07:39:28;9.90;99.90
4725;DHT22;2376;53.544;10.226;2023-04-15T07:41:55;9.70;99.90
4725;DHT22;2376;53.544;10.226;2023-04-15T07:44:25;9.80;99.90
4725;DHT22;2376;53.544;10.226;2023-04-15T07:46:52;9.80;99.90
4725;DHT22;2376;53.544;10.226;2023-04-15T07:49:19;9.80;99.90
4725;DHT22;2376;53.544;10.226;2023-04-15T07:51:46;9.80;99.90
4725;DHT22;2376;53.544;10.226;2023-04-15T07:54:13;10.10;99.90
4725;DHT22;2376;53.544;10.226;2023-04-15T07:56:40;10.20;99.90
4725;DHT22;2376;53.544;10.226;2023-04-15T07:59:07;10.20;99.90
4725;DHT22;2376;53.544;10.226;2023-04-15T08:01:35;10.20;99.90
4725;DHT22;2376;53.544;10.226;2023-04-15T08:04:03;10.20;99.90
4725;DHT22;2376;53.544;10.226;2023-04-15T08:06:30;10.20;99.90
4725;DHT22;2376;53.544;10.226;2023-04-15T08:08:57;10.00;99.90
4725;DHT22;2376;53.544;10.226;2023-04-15T08:11:24;10.10;99.90
4725;DHT22;2376;53.544;10.226;2023-04-15T08:13:52;10.20;99.90
4725;DHT22;2376;53.544;10.226;2023-04-15T08:16:20;10.30;99.90
4725;DHT22;2376;53.544;10.226;2023-04-15T08:18:49;10.20;99.90
4725;DHT22;2376;53.544;10.226;2023-04-15T08:21:17;10.30;99.90
4725;DHT22;2376;53.544;10.226;2023-04-15T08:23:46;10.10;99.90
4725;DHT22;2376;53.544;10.226;2023-04-15T08:26:13;10.30;99.90
4725;DHT22;2376;53.544;10.226;2023-04-15T08:28:41;10.30;99.90
4725;DHT22;2376;53.544;10.226;2023-04-15T08:31:08;10.30;99.90
4725;DHT22;2376;53.544;10.226;2023-04-15T08:33:35;10.30;99.90
4725;DHT22;2376;53.544;10.226;2023-04-15T08:36:03;10.40;99.90
4725;DHT22;2376;53.544;10.226;2023-04-15T08:38:31;10.40;99.90
4725;DHT22;2376;53.544;10.226;2023-04-15T08:40:59;10.50;99.90
4725;DHT22;2376;53.544;10.226;2023-04-15T08:43:33;10.40;99.90
4725;DHT22;2376;53.544;10.226;2023-04-15T08:46:00;10.40;99.90
4725;DHT22;2376;53.544;10.226;2023-04-15T08:48:28;10.60;99.90
4725;DHT22;2376;53.544;10.226;2023-04-15T08:50:58;10.50;99.90
4725;DHT22;2376;53.544;10.226;2023-04-15T08:53:28;10.40;99.90
4725;DHT22;2376;53.544;10.226;2023-04-15T08:55:56;10.30;99.90
4725;DHT22;2376;53.544;10.226;2023-04-15T08:58:24;10.40;99.90
4725;DHT22;2376;53.544;10.226;2023-04-15T09:00:50;10.50;99.90
4725;DHT22;2376;53.544;10.226;2023-04-15T09:03:18;10.30;99.90
4725;DHT22;2376;53.544;10.226;2023-04-15T09:05:46;10.30;99.90
4725;DHT22;2376;53.544;10.226;2023-04-15T09:08:13;10.40;99.90
4725;DHT22;2376;53.544;10.226;2023-04-15T09:10:41;10.60;99.90
4725;DHT22;2376;53.544;10.226;2023-04-15T09:13:08;10.70;99.90
4725;DHT22;2376;53.544;10.226;2023-04-15T09:15:37;10.70;99.90
4725;DHT22;2376;53.544;10.226;2023-04-15T09:18:04;10.80;99.90
4725;DHT22;2376;53.544;10.226;2023-04-15T09:20:38;10.80;99.90
4725;DHT22;2376;53.544;10.226;2023-04-15T09:23:11;10.80;99.90
4725;DHT22;2376;53.544;10.226;2023-04-15T09:25:39;11.20;99.90
4725;DHT22;2376;53.544;10.226;2023-04-15T09:28:08;11.60;99.90
4725;DHT22;2376;53.544;10.226;2023-04-15T09:30:35;11.70;99.90
4725;DHT22;2376;53.544;10.226;2023-04-15T09:33:03;11.70;99.90
4725;DHT22;2376;53.544;10.226;2023-04-15T09:35:33;11.60;99.90
4725;DHT22;2376;53.544;10.226;2023-04-15T09:38:04;11.50;99.90
4725;DHT22;2376;53.544;10.226;2023-04-15T09:40:33;11.30;99.90
4725;DHT22;2376;53.544;10.226;2023-04-15T09:43:01;11.60;99.90
4725;DHT22;2376;53.544;10.226;2023-04-15T09:45:35;11.40;99.90
4725;DHT22;2376;53.544;10.226;2023-04-15T09:48:15;11.50;99.90
4725;DHT22;2376;53.544;10.226;2023-04-15T09:50:42;11.60;99.90
4725;DHT22;2376;53.544;10.226;2023-04-15T09:53:09;11.80;99.90
4725;DHT22;2376;53.544;10.226;2023-04-15T09:55:37;11.80;99.90
4725;DHT22;2376;53.544;10.226;2023-04-15T09:58:08;11.80;99.90
4725;DHT22;2376;53.544;10.226;2023-04-15T10:00:37;11.80;99.90
4725;DHT22;2376;53.544;10.226;2023-04-15T10:03:04;11.70;99.90
4725;DHT22;2376;53.544;10.226;2023-04-15T10:05:32;11.80;99.90
4725;DHT22;2376;53.544;10.226;2023-04-15T10:07:59;11.80;99.90
4725;DHT22;2376;53.544;10.226;2023-04-15T10:10:27;12.00;99.90
4725;DHT22;2376;53.544;10.226;2023-04-15T10:12:54;12.30;99.90
4725;DHT22;2376;53.544;10.226;2023-04-15T10:15:22;12.40;99.90
4725;DHT22;2376;53.544;10.226;2023-04-15T10:17:52;12.80;99.90
4725;DHT22;2376;53.544;10.226;2023-04-15T10:20:21;12.70;99.90
4725;DHT22;2376;53.544;10.226;2023-04-15T10:22:48;12.70;99.90
4725;DHT22;2376;53.544;10.226;2023-04-15T10:25:17;13.10;99.90
4725;DHT22;2376;53.544;10.226;2023-04-15T10:27:44;13.00;99.90
4725;DHT22;2376;53.544;10.226;2023-04-15T10:30:13;12.90;99.90
4725;DHT22;2376;53.544;10.226;2023-04-15T10:32:41;12.90;99.90
4725;DHT22;2376;53.544;10.226;2023-04-15T10:35:10;13.00;99.90
4725;DHT22;2376;53.544;10.226;2023-04-15T10:37:37;13.10;99.90
4725;DHT22;2376;53.544;10.226;2023-04-15T10:40:27;13.10;99.90
4725;DHT22;2376;53.544;10.226;2023-04-15T10:42:58;12.80;99.90
4725;DHT22;2376;53.544;10.226;2023-04-15T10:45:27;12.80;99.90
4725;DHT22;2376;53.544;10.226;2023-04-15T10:47:55;13.00;99.90
4725;DHT22;2376;53.544;10.226;2023-04-15T10:50:26;13.00;99.90
4725;DHT22;2376;53.544;10.226;2023-04-15T10:52:55;13.00;99.90
4725;DHT22;2376;53.544;10.226;2023-04-15T10:55:23;12.90;99.90
4725;DHT22;2376;53.544;10.226;2023-04-15T10:57:52;13.20;99.90
4725;DHT22;2376;53.544;10.226;2023-04-15T11:00:23;13.30;99.90
4725;DHT22;2376;53.544;10.226;2023-04-15T11:02:53;13.20;99.90
4725;DHT22;2376;53.544;10.226;2023-04-15T11:05:22;13.20;99.90
4725;DHT22;2376;53.544;10.226;2023-04-15T11:07:54;13.30;99.90
4725;DHT22;2376;53.544;10.226;2023-04-15T11:10:52;13.10;99.90
4725;DHT22;2376;53.544;10.226;2023-04-15T11:13:28;13.00;99.90
4725;DHT22;2376;53.544;10.226;2023-04-15T11:16:00;12.70;99.90
4725;DHT22;2376;53.544;10.226;2023-04-15T11:18:32;12.80;99.90
4725;DHT22;2376;53.544;10.226;2023-04-15T11:21:01;12.90;99.90
4725;DHT22;2376;53.544;10.226;2023-04-15T11:23:32;13.00;99.90
4725;DHT22;2376;53.544;10.226;2023-04-15T11:25:59;12.90;99.90
4725;DHT22;2376;53.544;10.226;2023-04-15T11:28:27;13.00;99.90
4725;DHT22;2376;53.544;10.226;2023-04-15T11:30:55;12.90;99.90
4725;DHT22;2376;53.544;10.226;2023-04-15T11:33:23;13.20;99.90
4725;DHT22;2376;53.544;10.226;2023-04-15T11:35:52;13.30;99.90
4725;DHT22;2376;53.544;10.226;2023-04-15T11:38:19;13.00;99.90
4725;DHT22;2376;53.544;10.226;2023-04-15T11:40:49;13.10;99.90
4725;DHT22;2376;53.544;10.226;2023-04-15T11:43:18;13.20;99.90
4725;DHT22;2376;53.544;10.226;2023-04-15T11:45:53;13.30;99.90
4725;DHT22;2376;53.544;10.226;2023-04-15T11:48:22;13.20;99.90
4725;DHT22;2376;53.544;10.226;2023-04-15T11:50:53;13.10;99.90
4725;DHT22;2376;53.544;10.226;2023-04-15T11:53:21;13.00;99.90
4725;DHT22;2376;53.544;10.226;2023-04-15T11:55:51;12.90;99.90
4725;DHT22;2376;53.544;10.226;2023-04-15T11:58:19;13.00;99.90
4725;DHT22;2376;53.544;10.226;2023-04-15T12:00:48;13.30;99.90
4725;DHT22;2376;53.544;10.226;2023-04-15T12:03:21;13.40;99.90
4725;DHT22;2376;53.544;10.226;2023-04-15T12:06:09;13.40;99.90
4725;DHT22;2376;53.544;10.226;2023-04-15T12:09:07;13.50;99.90
4725;DHT22;2376;53.544;10.226;2023-04-15T12:11:41;13.40;99.90
4725;DHT22;2376;53.544;10.226;2023-04-15T12:14:11;13.50;99.90
4725;DHT22;2376;53.544;10.226;2023-04-15T12:16:40;13.60;99.90
4725;DHT22;2376;53.544;10.226;2023-04-15T12:19:09;13.60;99.90
4725;DHT22;2376;53.544;10.226;2023-04-15T12:21:38;13.50;99.90
4725;DHT22;2376;53.544;10.226;2023-04-15T12:24:07;13.30;99.90
4725;DHT22;2376;53.544;10.226;2023-04-15T12:26:37;13.10;99.90
4725;DHT22;2376;53.544;10.226;2023-04-15T12:29:10;13.20;99.90
4725;DHT22;2376;53.544;10.226;2023-04-15T12:31:46;13.10;99.90
4725;DHT22;2376;53.544;10.226;2023-04-15T12:34:13;13.20;99.90
4725;DHT22;2376;53.544;10.226;2023-04-15T12:36:41;13.10;99.90
4725;DHT22;2376;53.544;10.226;2023-04-15T12:39:08;13.20;99.90
4725;DHT22;2376;53.544;10.226;2023-04-15T12:41:36;13.50;99.90
4725;DHT22;2376;53.544;10.226;2023-04-15T12:44:03;13.40;99.90
4725;DHT22;2376;53.544;10.226;2023-04-15T12:46:29;13.40;99.90
4725;DHT22;2376;53.544;10.226;2023-04-15T12:48:57;13.30;99.90
4725;DHT22;2376;53.544;10.226;2023-04-15T12:51:24;13.30;99.90
4725;DHT22;2376;53.544;10.226;2023-04-15T12:53:51;13.40;99.90
4725;DHT22;2376;53.544;10.226;2023-04-15T12:56:18;13.30;99.90
4725;DHT22;2376;53.544;10.226;2023-04-15T12:58:47;13.40;99.90
4725;DHT22;2376;53.544;10.226;2023-04-15T13:01:13;13.40;99.90
4725;DHT22;2376;53.544;10.226;2023-04-15T13:03:40;13.30;99.90
4725;DHT22;2376;53.544;10.226;2023-04-15T13:06:07;13.10;99.90
4725;DHT22;2376;53.544;10.226;2023-04-15T13:08:34;13.10;99.90
4725;DHT22;2376;53.544;10.226;2023-04-15T13:11:01;13.10;99.90
4725;DHT22;2376;53.544;10.226;2023-04-15T13:13:28;13.30;99.90
4725;DHT22;2376;53.544;10.226;2023-04-15T13:15:57;13.30;99.90
4725;DHT22;2376;53.544;10.226;2023-04-15T13:18:24;13.30;99.90
4725;DHT22;2376;53.544;10.226;2023-04-15T13:20:51;13.20;99.90
4725;DHT22;2376;53.544;10.226;2023-04-15T13:23:18;13.20;99.90
4725;DHT22;2376;53.544;10.226;2023-04-15T13:25:45;13.30;99.90
4725;DHT22;2376;53.544;10.226;2023-04-15T13:28:12;13.40;99.90
4725;DHT22;2376;53.544;10.226;2023-04-15T13:30:39;13.30;99.90
4725;DHT22;2376;53.544;10.226;2023-04-15T13:33:07;13.40;99.90
4725;DHT22;2376;53.544;10.226;2023-04-15T13:35:34;13.80;99.90
4725;DHT22;2376;53.544;10.226;2023-04-15T13:38:01;13.80;99.90
4725;DHT22;2376;53.544;10.226;2023-04-15T13:40:27;13.70;99.90
4725;DHT22;2376;53.544;10.226;2023-04-15T13:42:54;13.90;99.90
4725;DHT22;2376;53.544;10.226;2023-04-15T13:45:22;14.00;99.90
4725;DHT22;2376;53.544;10.226;2023-04-15T13:47:49;13.70;99.90
4725;DHT22;2376;53.544;10.226;2023-04-15T13:50:17;13.70;99.90
4725;DHT22;2376;53.544;10.226;2023-04-15T13:52:44;13.80;99.90
4725;DHT22;2376;53.544;10.226;2023-04-15T13:55:10;14.00;99.90
4725;DHT22;2376;53.544;10.226;2023-04-15T13:57:37;14.10;99.90
4725;DHT22;2376;53.544;10.226;2023-04-15T14:00:05;14.10;99.90
4725;DHT22;2376;53.544;10.226;2023-04-15T14:02:32;14.30;99.90
4725;DHT22;2376;53.544;10.226;2023-04-15T14:04:59;14.20;99.90
4725;DHT22;2376;53.544;10.226;2023-04-15T14:07:28;14.20;99.90
4725;DHT22;2376;53.544;10.226;2023-04-15T14:09:55;14.50;99.90
4725;DHT22;2376;53.544;10.226;2023-04-15T14:12:22;14.70;99.90
4725;DHT22;2376;53.544;10.226;2023-04-15T14:14:48;14.60;99.90
4725;DHT22;2376;53.544;10.226;2023-04-15T14:17:15;14.50;99.90
4725;DHT22;2376;53.544;10.226;2023-04-15T14:19:42;14.40;99.90
4725;DHT22;2376;53.544;10.226;2023-04-15T14:22:09;14.30;99.90
4725;DHT22;2376;53.544;10.226;2023-04-15T14:24:37;14.60;99.90
4725;DHT22;2376;53.544;10.226;2023-04-15T14:27:04;14.70;99.90
4725;DHT22;2376;53.544;10.226;2023-04-15T14:29:30;14.50;99.90
4725;DHT22;2376;53.544;10.226;2023-04-15T14:31:57;14.60;99.90
4725;DHT22;2376;53.544;10.226;2023-04-15T14:34:24;14.60;99.90
4725;DHT22;2376;53.544;10.226;2023-04-15T14:36:51;14.60;99.90
4725;DHT22;2376;53.544;10.226;2023-04-15T14:39:18;14.50;99.90
4725;DHT22;2376;53.544;10.226;2023-04-15T14:41:46;14.50;99.90
4725;DHT22;2376;53.544;10.226;2023-04-15T14:44:13;14.30;99.90
4725;DHT22;2376;53.544;10.226;2023-04-15T14:46:40;14.60;99.90
4725;DHT22;2376;53.544;10.226;2023-04-15T14:49:07;14.80;99.90
4725;DHT22;2376;53.544;10.226;2023-04-15T14:51:34;14.70;99.90
4725;DHT22;2376;53.544;10.226;2023-04-15T14:54:01;14.70;99.90
4725;DHT22;2376;53.544;10.226;2023-04-15T14:56:28;14.50;99.90
4725;DHT22;2376;53.544;10.226;2023-04-15T14:58:56;14.30;99.90
4725;DHT22;2376;53.544;10.226;2023-04-15T15:01:22;14.30;99.90
4725;DHT22;2376;53.544;10.226;2023-04-15T15:03:49;14.10;99.90
4725;DHT22;2376;53.544;10.226;2023-04-15T15:06:16;14.10;99.90
4725;DHT22;2376;53.544;10.226;2023-04-15T15:08:44;13.90;99.90
4725;DHT22;2376;53.544;10.226;2023-04-15T15:11:11;13.90;99.90
4725;DHT22;2376;53.544;10.226;2023-04-15T15:13:38;13.80;99.90
4725;DHT22;2376;53.544;10.226;2023-04-15T15:16:06;14.00;99.90
4725;DHT22;2376;53.544;10.226;2023-04-15T15:18:34;14.20;99.90
4725;DHT22;2376;53.544;10.226;2023-04-15T15:21:01;14.30;99.90
4725;DHT22;2376;53.544;10.226;2023-04-15T15:23:28;14.50;99.90
4725;DHT22;2376;53.544;10.226;2023-04-15T15:25:55;14.60;99.90
4725;DHT22;2376;53.544;10.226;2023-04-15T15:28:22;14.40;99.90
4725;DHT22;2376;53.544;10.226;2023-04-15T15:30:49;14.40;99.90
4725;DHT22;2376;53.544;10.226;2023-04-15T15:33:17;14.30;99.90
4725;DHT22;2376;53.544;10.226;2023-04-15T15:35:45;14.10;99.90
4725;DHT22;2376;53.544;10.226;2023-04-15T15:38:12;13.90;99.90
4725;DHT22;2376;53.544;10.226;2023-04-15T15:40:39;13.90;99.90
4725;DHT22;2376;53.544;10.226;2023-04-15T15:43:06;14.10;99.90
4725;DHT22;2376;53.544;10.226;2023-04-15T15:45:33;14.00;99.90
4725;DHT22;2376;53.544;10.226;2023-04-15T15:48:01;13.80;99.90
4725;DHT22;2376;53.544;10.226;2023-04-15T15:50:29;13.60;99.90
4725;DHT22;2376;53.544;10.226;2023-04-15T15:52:56;13.50;99.90
4725;DHT22;2376;53.544;10.226;2023-04-15T15:55:23;13.60;99.90